createdAt,value
2022-09-29T00:04:03.824Z,8.51
2022-09-29T00:09:06.885Z,8.49
2022-09-29T00:14:09.601Z,8.42
2022-09-29T00:19:13.685Z,8.31
2022-09-29T00:24:16.533Z,8.22
2022-09-29T00:29:19.378Z,8.19
2022-09-29T00:34:23.470Z,8.14
2022-09-29T00:39:26.529Z,8.09
2022-09-29T00:44:57.107Z,8.09
2022-09-29T00:50:05.692Z,8.03
2022-09-29T00:55:13.866Z,7.99
2022-09-29T01:00:17.656Z,7.97
2022-09-29T01:05:24.835Z,7.93
2022-09-29T01:10:27.731Z,7.90
2022-09-29T01:15:31.305Z,7.88
2022-09-29T01:20:42.854Z,7.86
2022-09-29T01:26:23.859Z,7.86
2022-09-29T01:31:35.869Z,7.85
2022-09-29T01:36:51.566Z,7.81
2022-09-29T01:41:58.553Z,7.77
2022-09-29T01:47:09.222Z,7.76
2022-09-29T01:52:16.161Z,7.76
2022-09-29T01:57:25.586Z,7.72
2022-09-29T02:02:37.476Z,7.68
2022-09-29T02:07:44.014Z,7.66
2022-09-29T02:12:48.365Z,7.61
2022-09-29T02:17:53.210Z,7.58
2022-09-29T02:22:56.859Z,7.54
2022-09-29T02:27:59.592Z,7.52
2022-09-29T02:33:03.752Z,7.50
2022-09-29T02:38:13.297Z,7.51
2022-09-29T02:43:36.002Z,7.51
2022-09-29T02:49:05.110Z,7.48
2022-09-29T02:54:26.176Z,7.44
2022-09-29T02:59:35.583Z,7.38
2022-09-29T03:04:39.940Z,7.36
2022-09-29T03:09:42.626Z,7.33
2022-09-29T03:14:45.346Z,7.27
2022-09-29T03:19:49.444Z,7.29
2022-09-29T03:24:52.168Z,7.31
2022-09-29T03:29:54.887Z,7.30
2022-09-29T03:34:58.994Z,7.28
2022-09-29T03:40:02.202Z,7.26
2022-09-29T03:45:05.536Z,7.23
2022-09-29T03:50:10.545Z,7.21
2022-09-29T03:55:13.284Z,7.17
2022-09-29T04:00:16.735Z,7.14
2022-09-29T04:05:20.802Z,7.12
2022-09-29T04:10:23.534Z,7.10
2022-09-29T04:15:26.348Z,7.08
2022-09-29T04:20:30.443Z,7.03
2022-09-29T04:25:33.196Z,7.03
2022-09-29T04:30:35.929Z,7.01
2022-09-29T04:35:40.118Z,7.00
2022-09-29T04:40:42.886Z,7.00
2022-09-29T04:45:45.751Z,6.99
2022-09-29T04:50:51.298Z,6.95
2022-09-29T04:55:54.225Z,6.93
2022-09-29T05:00:56.989Z,6.94
2022-09-29T05:06:01.099Z,6.94
2022-09-29T05:11:05.637Z,6.92
2022-09-29T05:16:08.967Z,6.93
2022-09-29T05:21:29.280Z,6.91
2022-09-29T05:26:32.317Z,6.89
2022-09-29T05:31:35.091Z,6.89
2022-09-29T05:36:39.507Z,6.89
2022-09-29T05:41:42.259Z,6.94
2022-09-29T05:46:44.979Z,6.93
2022-09-29T05:51:49.068Z,6.96
2022-09-29T05:56:51.782Z,6.99
2022-09-29T06:01:54.528Z,7.02
2022-09-29T06:06:58.649Z,7.06
2022-09-29T06:12:01.558Z,7.12
2022-09-29T06:17:04.297Z,7.17
2022-09-29T06:22:08.375Z,7.21
2022-09-29T06:27:11.090Z,7.29
2022-09-29T06:32:13.901Z,7.35
2022-09-29T06:37:35.983Z,7.43
2022-09-29T06:42:38.846Z,7.52
2022-09-29T06:47:41.610Z,7.62
2022-09-29T06:52:56.753Z,7.76
2022-09-29T06:58:04.648Z,7.90
2022-09-29T07:03:07.368Z,8.05
2022-09-29T07:08:11.631Z,8.20
2022-09-29T07:13:14.323Z,8.36
2022-09-29T07:18:17.016Z,8.52
2022-09-29T07:23:21.078Z,8.69
2022-09-29T07:28:24.161Z,8.87
2022-09-29T07:33:37.702Z,9.09
2022-09-29T07:38:43.539Z,9.35
2022-09-29T07:43:46.374Z,9.60
2022-09-29T07:48:49.087Z,9.83
2022-09-29T07:53:53.195Z,10.07
2022-09-29T07:58:56.359Z,10.25
2022-09-29T08:03:59.296Z,10.46
2022-09-29T08:09:05.307Z,10.70
2022-09-29T08:14:10.301Z,10.93
2022-09-29T08:24:18.682Z,11.31
2022-09-29T08:29:21.726Z,11.54
2022-09-29T08:34:24.515Z,11.82
2022-09-29T08:39:28.619Z,12.02
2022-09-29T08:44:39.538Z,12.25
2022-09-29T08:49:45.147Z,12.47
2022-09-29T08:54:54.090Z,12.65
2022-09-29T08:59:59.884Z,12.86
2022-09-29T09:05:18.105Z,13.14
2022-09-29T09:10:34.120Z,13.29
2022-09-29T09:15:54.144Z,13.49
2022-09-29T09:21:05.630Z,13.64
2022-09-29T09:26:12.295Z,13.81
2022-09-29T09:31:21.368Z,14.04
2022-09-29T09:36:34.366Z,14.31
2022-09-29T09:41:41.041Z,14.39
2022-09-29T09:46:50.947Z,14.61
2022-09-29T09:52:01.026Z,14.75
2022-09-29T09:57:30.637Z,14.69
2022-09-29T10:02:33.445Z,14.85
2022-09-29T10:07:36.190Z,14.97
2022-09-29T10:12:40.254Z,15.18
2022-09-29T10:17:48.043Z,15.39
2022-09-29T10:22:51.874Z,15.44
2022-09-29T10:27:57.654Z,15.56
2022-09-29T10:33:03.140Z,15.78
2022-09-29T10:38:11.083Z,16.07
2022-09-29T10:43:26.876Z,16.24
2022-09-29T10:48:30.206Z,16.34
2022-09-29T10:53:38.978Z,16.35
2022-09-29T10:58:59.082Z,16.58
2022-09-29T11:04:16.715Z,16.58
2022-09-29T11:09:32.287Z,16.74
2022-09-29T11:14:43.476Z,16.82
2022-09-29T11:19:46.905Z,17.00
2022-09-29T11:25:18.263Z,16.98
2022-09-29T11:30:24.884Z,17.18
2022-09-29T11:35:38.849Z,17.32
2022-09-29T11:40:53.974Z,17.43
2022-09-29T11:46:16.430Z,17.66
2022-09-29T11:51:29.675Z,17.92
2022-09-29T11:56:44.297Z,18.09
2022-09-29T12:02:03.443Z,18.23
2022-09-29T12:07:13.532Z,18.29
2022-09-29T12:12:24.791Z,18.14
2022-09-29T12:17:32.508Z,17.98
2022-09-29T12:22:37.326Z,17.90
2022-09-29T12:27:42.538Z,17.73
2022-09-29T12:32:52.553Z,17.40
2022-09-29T12:38:03.370Z,17.23
2022-09-29T12:43:14.526Z,17.00
2022-09-29T12:48:30.189Z,16.83
2022-09-29T12:53:36.305Z,17.02
2022-09-29T12:58:45.555Z,17.14
2022-09-29T13:04:31.001Z,17.12
2022-09-29T13:10:07.435Z,17.01
2022-09-29T13:15:32.218Z,16.95
2022-09-29T13:20:55.207Z,16.91
2022-09-29T13:26:09.478Z,16.95
2022-09-29T13:31:15.102Z,16.87
2022-09-29T13:36:28.530Z,16.81
2022-09-29T13:41:38.973Z,16.70
2022-09-29T13:46:41.788Z,16.56
2022-09-29T13:51:49.652Z,16.43
2022-09-29T13:57:00.373Z,16.55
2022-09-29T14:02:03.920Z,16.64
2022-09-29T14:07:09.293Z,16.66
2022-09-29T14:12:21.048Z,16.67
2022-09-29T14:17:31.034Z,16.62
2022-09-29T14:23:01.267Z,16.62
2022-09-29T14:28:08.473Z,16.62
2022-09-29T14:33:14.776Z,16.46
2022-09-29T14:38:22.023Z,16.34
2022-09-29T14:43:37.942Z,16.26
2022-09-29T14:49:09.826Z,16.17
2022-09-29T14:54:25.768Z,16.09
2022-09-29T14:59:46.661Z,16.05
2022-09-29T15:04:50.156Z,15.88
2022-09-29T15:09:56.299Z,15.79
2022-09-29T15:15:01.450Z,15.78
2022-09-29T15:20:13.136Z,15.80
2022-09-29T15:25:29.684Z,15.79
2022-09-29T15:30:34.996Z,15.74
2022-09-29T15:35:44.478Z,15.71
2022-09-29T15:40:54.796Z,15.65
2022-09-29T15:46:00.227Z,15.54
2022-09-29T15:51:04.200Z,15.45
2022-09-29T15:56:08.289Z,15.37
2022-09-29T16:01:13.812Z,15.30
2022-09-29T16:06:31.733Z,15.23
2022-09-29T16:11:38.179Z,15.12
2022-09-29T16:16:43.387Z,15.04
2022-09-29T16:21:51.235Z,14.95
2022-09-29T16:26:56.881Z,14.85
2022-09-29T16:32:00.967Z,14.71
2022-09-29T16:37:06.369Z,14.58
2022-09-29T16:42:19.967Z,14.45
2022-09-29T16:47:27.239Z,14.32
2022-09-29T16:52:34.668Z,14.18
2022-09-29T16:57:51.996Z,14.09
2022-09-29T17:02:55.497Z,13.99
2022-09-29T17:08:01.387Z,13.89
2022-09-29T17:13:11.982Z,13.75
2022-09-29T17:18:15.874Z,13.65
2022-09-29T17:23:18.573Z,13.53
2022-09-29T17:28:24.841Z,13.39
2022-09-29T17:33:27.557Z,13.27
2022-09-29T17:38:31.687Z,13.17
2022-09-29T17:43:35.758Z,13.04
2022-09-29T17:48:38.462Z,12.91
2022-09-29T17:53:42.029Z,12.80
2022-09-29T17:58:46.164Z,12.65
2022-09-29T18:03:49.735Z,12.50
2022-09-29T18:08:54.144Z,12.36
2022-09-29T18:13:58.399Z,12.25
2022-09-29T18:19:01.136Z,12.11
2022-09-29T18:24:03.875Z,12.02
2022-09-29T18:29:16.795Z,11.96
2022-09-29T18:34:22.223Z,11.91
2022-09-29T18:39:25.354Z,11.88
2022-09-29T18:44:33.398Z,11.86
2022-09-29T18:49:36.158Z,11.86
2022-09-29T18:54:38.872Z,11.87
2022-09-29T18:59:43.028Z,11.88
2022-09-29T19:04:46.590Z,11.86
2022-09-29T19:09:51.392Z,11.88
2022-09-29T19:14:55.784Z,11.85
2022-09-29T19:20:00.148Z,11.84
2022-09-29T19:25:03.276Z,11.83
2022-09-29T19:30:08.439Z,11.80
2022-09-29T19:35:13.296Z,11.79
2022-09-29T19:40:18.259Z,11.76
2022-09-29T19:45:22.655Z,11.71
2022-09-29T19:50:43.451Z,11.73
2022-09-29T19:55:46.730Z,11.69
2022-09-29T20:00:50.842Z,11.69
2022-09-29T20:06:00.178Z,11.71
2022-09-29T20:11:07.866Z,11.74
2022-09-29T20:16:12.028Z,11.74
2022-09-29T20:21:14.835Z,11.71
2022-09-29T20:26:17.975Z,11.59
2022-09-29T20:31:24.131Z,11.49
2022-09-29T20:36:27.081Z,11.44
2022-09-29T20:41:30.375Z,11.45
2022-09-29T20:46:35.325Z,11.46
2022-09-29T20:51:38.466Z,11.47
2022-09-29T20:56:42.434Z,11.45
2022-09-29T21:01:48.626Z,11.46
2022-09-29T21:06:53.011Z,11.43
2022-09-29T21:11:56.027Z,11.42
2022-09-29T21:17:00.504Z,11.38
2022-09-29T21:22:03.304Z,11.32
2022-09-29T21:27:06.231Z,11.29
2022-09-29T21:32:10.343Z,11.30
2022-09-29T21:37:13.057Z,11.28
2022-09-29T21:42:16.151Z,11.28
2022-09-29T21:47:40.224Z,11.25
2022-09-29T21:52:43.686Z,11.20
2022-09-29T21:57:46.379Z,11.14
2022-09-29T22:02:50.564Z,11.11
2022-09-29T22:07:53.676Z,11.09
2022-09-29T22:12:56.424Z,11.07
2022-09-29T22:18:00.557Z,11.02
2022-09-29T22:23:03.439Z,10.93
2022-09-29T22:28:06.182Z,10.90
2022-09-29T22:33:10.400Z,10.84
2022-09-29T22:38:13.447Z,10.79
2022-09-29T22:43:16.224Z,10.81
2022-09-29T22:48:20.981Z,10.84
2022-09-29T22:53:23.749Z,10.92
2022-09-29T22:58:26.871Z,10.99
2022-09-29T23:03:31.143Z,11.03
2022-09-29T23:08:34.540Z,11.03
2022-09-29T23:13:40.084Z,10.97
2022-09-29T23:18:45.850Z,10.93
2022-09-29T23:23:48.717Z,10.88
2022-09-29T23:28:51.522Z,10.89
2022-09-29T23:33:57.415Z,10.86
2022-09-29T23:39:14.072Z,10.83
2022-09-29T23:44:18.863Z,10.82
2022-09-29T23:49:24.515Z,10.82
2022-09-29T23:54:29.331Z,10.85
2022-09-29T23:59:32.043Z,10.87
